This is the latest recevied weather packets stored in our database for station/object DF7ER-12. If no packets are shown the sender has not sent any weather packets the latest 10 day(s).
| Time | Temp. | Humidity | Pressure | Rain* | Wind** | Luminosity | Snow |
|---|---|---|---|---|---|---|---|
| 1787996180 | 23.33° C | 78% | 1000.1 hPa | - | - | - | - |
| 1787995880 | 22.78° C | 79% | 1000.1 hPa | - | - | - | - |
| 1787995580 | 22.78° C | 78% | 1000.1 hPa | - | - | - | - |
| 1787995280 | 23.33° C | 78% | 1000.2 hPa | - | - | - | - |
| 1787994980 | 23.33° C | 77% | 1000.2 hPa | - | - | - | - |
| 1787994680 | 23.33° C | 77% | 1000.3 hPa | - | - | - | - |
| 1787994380 | 23.33° C | 79% | 1000.2 hPa | - | - | - | - |
| 1787994080 | 23.33° C | 77% | 1000.2 hPa | - | - | - | - |
| 1787993780 | 22.22° C | 79% | 1000.2 hPa | - | - | - | - |
| 1787993480 | 23.33° C | 77% | 1000.2 hPa | - | - | - | - |
| 1787993180 | 23.33° C | 77% | 1000.1 hPa | - | - | - | - |
| 1787992881 | 23.33° C | 77% | 1000.2 hPa | - | - | - | - |
| 1787992580 | 22.78° C | 80% | 1000.1 hPa | - | - | - | - |
| 1787992281 | 23.33° C | 78% | 1000.2 hPa | - | - | - | - |
| 1787991980 | 22.78° C | 80% | 1000.2 hPa | - | - | - | - |
| 1787991680 | 22.78° C | 79% | 1000.2 hPa | - | - | - | - |
| 1787991380 | 22.22° C | 81% | 1000.2 hPa | - | - | - | - |
| 1787991081 | 21.67° C | 82% | 1000.2 hPa | - | - | - | - |
| 1787990780 | 21.67° C | 81% | 1000.2 hPa | - | - | - | - |
| 1787990480 | 21.67° C | 81% | 1000.2 hPa | - | - | - | - |
| 1787990180 | 21.67° C | 82% | 1000.1 hPa | - | - | - | - |
| 1787989881 | 21.67° C | 83% | 1000.1 hPa | - | - | - | - |
| 1787989580 | 21.67° C | 82% | 1000.1 hPa | - | - | - | - |
| 1787989280 | 21.11° C | 82% | 1000.1 hPa | - | - | - | - |
| 1787988981 | 21.67° C | 82% | 1000 hPa | - | - | - | - |
* Rain since midnight (hover to see other rain measurements)
** Current wind speed in m/s (hover to see current wind gust speed)